Chadstone Weather > Observations for 08/10/20

Select Day:



Observations
Time Temp Hum DP Wind Gust Dir Rain >9am Press
C % C kph kph mm hPa
00:00 14.6 98 14.3 2.2 6.1 ESE 0.6 1012.5
00:10 14.6 98 14.3 4.3 12.2 SE 0.9 1011.6
00:20 14.6 98 14.3 5.8 14.8 E 0.9 1011.5
00:30 14.7 99 14.6 1.6 7.2 ESE 0.9 1011.4
00:40 14.9 99 14.8 3.2 8.6 ESE 0.9 1011.3
00:50 14.9 99 14.8 1.6 7.2 E 0.9 1011.2
01:00 15.0 98 14.7 1.2 5.0 SE 0.9 1011.0
01:10 15.1 99 15.0 1.8 8.6 SE 1.2 1010.6
01:20 15.1 99 15.0 4.6 12.2 SE 1.2 1010.3
01:30 15.2 99 15.1 2.8 6.1 ESE 1.2 1010.2
01:40 15.3 99 15.2 2.7 7.2 ESE 1.5 1010.2
01:50 15.3 99 15.2 2.4 5.0 E 1.5 1009.9
02:00 15.4 99 15.3 3.4 7.2 ESE 1.8 1009.3
02:10 15.5 99 15.4 4.7 7.2 E 2.1 1009.0
02:20 15.5 99 15.4 5.0 7.2 SE 2.1 1009.3
02:30 15.5 99 15.4 5.0 7.2 SE 2.1 1009.1
02:40 15.8 99 15.7 4.1 9.7 NE 2.1 1008.8
02:50 15.9 99 15.8 5.2 12.2 NE 2.1 1008.6
03:00 16.1 98 15.8 7.0 12.2 NE 2.1 1008.1
03:10 16.2 98 15.9 5.6 8.6 NNE 2.1 1008.0
03:20 16.3 98 16.0 4.1 8.6 NE 2.1 1007.7
03:30 16.3 98 16.0 5.4 11.2 NE 2.1 1007.4
03:40 16.3 98 16.0 5.1 11.2 ENE 2.1 1007.0
03:50 16.3 98 16.0 1.4 5.0 NNE 2.1 1007.2
04:00 16.2 98 15.9 0.5 5.0 ENE 2.1 1007.0
04:10 16.2 98 15.9 5.3 11.2 ENE 2.1 1006.8
04:20 16.4 98 16.1 5.8 12.2 NE 2.1 1006.6
04:30 16.5 98 16.2 4.7 12.2 NNE 2.1 1006.4
04:40 16.5 98 16.2 4.1 8.6 NNE 2.1 1006.5
04:50 16.5 98 16.2 1.1 6.1 NNW 2.1 1006.5
05:00 16.5 98 16.2 1.1 3.6 NNW 2.1 1006.7
05:10 16.5 98 16.2 1.1 3.6 NNW 2.1 1006.7
05:20 16.5 98 16.2 1.1 3.6 NNW 2.1 1006.7
05:30 16.5 98 16.2 1.1 3.6 NNW 2.1 1006.5
05:40 16.5 98 16.2 1.1 3.6 NNW 2.1 1006.7
05:50 16.5 98 16.2 1.1 3.6 NNW 2.1 1006.6
06:00 16.5 98 16.2 1.1 3.6 NNW 2.1 1006.8
06:10 16.0 98 15.7 7.1 12.2 NW 5.1 1006.8
06:20 16.0 98 15.7 6.1 11.2 NW 5.1 1007.0
06:30 15.7 99 15.6 5.0 6.1 N 5.4 1007.1
06:40 15.6 99 15.5 6.7 15.8 NNW 5.4 1007.2
06:50 15.5 99 15.4 5.9 12.2 NNW 5.4 1007.5
07:00 15.4 99 15.3 6.1 13.3 NNW 5.4 1007.6
07:10 15.3 99 15.2 6.6 13.3 N 5.4 1007.4
07:20 15.2 99 15.1 4.7 11.2 N 5.4 1007.1
07:30 15.1 99 15.0 8.1 12.2 NW 5.4 1007.8
07:40 14.8 99 14.7 8.6 18.4 NNW 5.4 1007.7
07:50 14.7 99 14.6 12.3 19.4 NW 5.4 1007.9
08:00 14.8 97 14.3 12.8 29.5 NNW 5.4 1007.9
08:10 14.8 96 14.2 13.1 27.0 NNW 5.4 1008.2
08:20 14.9 94 13.9 14.2 31.7 NNW 5.4 1008.1
08:30 15.0 91 13.5 12.2 22.0 NNW 5.4 1008.1
08:40 15.1 89 13.3 13.2 25.6 NW 5.4 1008.0
08:50 15.0 87 12.9 14.0 29.5 NNW 5.4 1008.0
09:00 15.1 86 12.8 15.5 36.7 N 5.4 1008.0
09:10 15.3 85 12.8 15.8 30.6 NNW 5.4 1008.1
09:20 15.5 83 12.6 17.2 33.1 NNW 5.4 1008.2
09:30 15.7 83 12.8 12.4 23.4 WNW 5.4 1008.3
09:40 15.5 83 12.6 17.1 30.6 NNW 5.4 1008.6
09:50 15.5 82 12.4 17.5 31.7 NW 5.4 1008.6
10:00 15.7 80 12.3 15.5 35.6 NW 0.0 1008.7
10:10 15.7 79 12.1 17.9 39.2 NNW 0.0 1008.8
10:20 15.6 76 11.4 17.5 39.2 NW 0.0 1009.0
10:30 15.7 76 11.5 19.4 35.6 NNW 0.0 1009.0
10:40 16.2 74 11.6 17.0 35.6 N 0.0 1008.9
10:50 16.5 73 11.7 18.6 33.1 NW 0.0 1008.8
11:00 16.8 72 11.7 16.0 33.1 NNW 0.0 1008.8
11:10 16.6 71 11.3 19.5 36.7 NNW 0.0 1008.6
11:20 16.9 69 11.2 17.8 37.8 NNW 0.0 1008.8
11:30 16.6 68 10.7 16.5 33.1 NNW 0.0 1008.8
11:40 16.4 69 10.7 15.8 27.0 NNW 0.0 1008.6
11:50 16.7 69 11.0 14.5 33.1 N 0.0 1008.5
12:00 17.1 66 10.7 19.6 39.2 NNW 0.0 1008.5
12:10 16.8 67 10.6 16.4 36.7 NNW 0.0 1008.4
12:20 16.8 66 10.4 18.1 30.6 N 0.0 1008.5
12:30 16.5 66 10.1 14.5 29.5 NW 0.0 1008.6
12:40 16.4 68 10.5 17.2 39.2 NNW 0.0 1008.7
12:50 15.9 69 10.2 19.6 40.3 N 0.0 1008.6
13:00 15.6 73 10.8 19.2 34.2 NNW 0.0 1008.7
13:10 15.7 72 10.7 20.1 49.0 NNW 0.0 1008.8
13:20 15.6 65 9.1 24.0 49.0 NNW 0.0 1008.9
13:30 15.6 68 9.7 22.2 37.8 NW 0.0 1008.9
13:40 15.4 70 10.0 19.0 35.6 NNW 0.0 1009.0
13:50 15.3 70 9.9 21.8 40.3 N 0.0 1009.0
14:00 15.3 68 9.4 22.2 40.3 NNW 0.0 1009.0
14:10 14.8 72 9.8 22.6 42.8 N 0.0 1009.0
14:20 14.5 75 10.1 18.6 37.8 NNW 0.0 1008.7
14:30 14.3 76 10.1 18.5 36.7 N 0.3 1008.6
14:40 14.5 76 10.3 18.0 34.2 N 0.3 1008.3
14:50 15.0 75 10.6 19.6 31.7 N 0.3 1008.1
15:00 15.4 72 10.4 21.6 37.8 N 0.3 1008.0
15:10 15.6 70 10.2 22.2 46.4 NNW 0.3 1007.9
15:20 15.6 71 10.4 21.4 45.4 NNW 0.3 1007.7
15:30 15.7 72 10.7 23.9 40.3 N 0.3 1007.8
15:40 15.7 73 10.9 23.5 49.0 NNW 0.3 1007.9
15:50 15.5 74 10.9 26.9 45.4 N 0.3 1007.6
16:00 15.4 75 11.0 23.2 45.4 N 0.3 1007.6
16:10 15.4 75 11.0 21.2 45.4 NNW 0.3 1007.5
16:20 15.4 76 11.2 22.4 49.0 NNW 0.3 1007.6
16:30 15.1 77 11.1 19.7 36.7 N 0.3 1007.6
16:40 14.7 83 11.8 22.6 42.8 NNW 0.6 1007.7
16:50 14.5 85 12.0 19.8 35.6 N 0.9 1007.9
17:00 14.3 87 12.2 16.4 30.6 NNE 0.9 1007.9
17:10 14.1 88 12.1 13.4 25.6 NNW 1.2 1007.8
17:20 14.1 89 12.3 10.1 23.4 NNW 1.2 1007.9
17:30 14.1 89 12.3 13.5 33.1 NW 1.2 1007.9
17:40 14.2 89 12.4 13.8 27.0 NNW 1.2 1007.9
17:50 14.3 87 12.2 14.4 31.7 NNW 1.2 1008.1
18:00 14.4 85 11.9 15.9 36.7 NW 1.2 1008.3
18:10 14.5 83 11.7 16.2 30.6 NNW 1.2 1008.4
18:20 14.6 81 11.4 15.7 35.6 NW 1.2 1008.5
18:30 14.7 79 11.1 17.3 39.2 NNW 1.2 1008.8
18:40 14.7 78 10.9 19.4 37.8 N 1.2 1008.9
18:50 14.6 78 10.8 18.8 35.6 NW 1.2 1009.1
19:00 14.3 79 10.7 15.8 37.8 NW 1.5 1009.3
19:10 14.0 81 10.8 13.5 27.0 NW 1.8 1009.6
19:20 13.8 83 11.0 14.1 25.6 NW 2.1 1009.6
19:30 13.6 85 11.1 15.1 29.5 WNW 2.1 1009.7
19:40 13.6 85 11.1 14.8 27.0 NNW 2.1 1009.7
19:50 13.8 84 11.1 16.3 34.2 NNW 2.1 1009.7
20:00 14.0 81 10.8 14.3 36.7 WNW 2.1 1009.7
20:10 14.2 79 10.6 16.1 36.7 NW 2.1 1009.9
20:20 14.3 78 10.5 16.3 33.1 NNW 2.1 1009.9
20:30 14.3 77 10.3 15.5 29.5 NW 2.1 1010.1
20:40 14.2 78 10.4 12.4 28.1 NW 2.1 1010.2
20:50 14.2 77 10.2 15.5 25.6 NNW 2.1 1010.5
21:00 14.3 77 10.3 15.8 36.7 WNW 2.1 1010.7
21:10 14.2 77 10.2 13.9 29.5 WNW 2.1 1011.0
21:20 14.2 77 10.2 13.7 30.6 NW 2.1 1011.1
21:30 14.2 77 10.2 13.0 27.0 NW 2.1 1011.3
21:40 14.3 76 10.1 14.6 31.7 NW 2.1 1011.6
21:50 14.4 75 10.0 17.6 40.3 WNW 2.1 1012.0
22:00 14.5 75 10.1 17.2 35.6 NW 2.1 1012.0
22:10 14.4 76 10.2 16.9 43.9 NW 2.1 1012.1
22:20 14.1 78 10.3 17.8 40.3 W 2.1 1012.4
22:30 13.8 81 10.6 17.0 36.7 WNW 2.1 1012.4
22:40 13.7 82 10.7 13.2 25.6 WNW 2.1 1012.6
22:50 13.8 83 11.0 16.0 36.7 WNW 2.1 1012.7
23:00 13.8 83 11.0 17.3 31.7 WNW 2.1 1013.0
23:10 13.6 85 11.1 15.1 25.6 NW 2.1 1013.1
23:20 13.5 85 11.0 13.7 24.5 W 2.1 1013.3
23:30 13.3 86 11.0 13.4 25.6 W 2.1 1013.5
23:40 13.2 86 10.9 11.8 19.4 NW 2.1 1013.6
23:50 13.1 87 11.0 12.6 27.0 NW 2.1 1013.8